Main page
METAR-TAF:

METAR-TAF

Airports :

Léopold Sédar Senghor International Airport

Dakar, Senegal

latitude: 14-44N, longitude: 017-30W, elevation: 27 m

Current weather observation

The report was made 33 minutes ago, at 12:00 UTC
Wind 6 kt from the West
Temperature 30°C
Humidity 70%
Pressure 1013 hPa
Visibility 10 km or more
Few clouds at a height of 1300 ft
Few clouds at a height of 1600 ft, Towering cumulus.

METAR: GOOY 251200Z 28006KT 9999 FEW013 FEW016TCU 30/24 Q1013

Time: 12:33 (12:33 UTC)

Forecast

The report was made 1 hour and 3 minutes ago, at 11:30 UTC
Forecast valid from 25 at 12 UTC to 26 at 18 UTC
Wind 8 kt from the West/Southwest
Visibility 10 km or more
Scattered clouds at a height of 1300 ft
Probability 30% :
Temporary
from 26 at 01 UTC to 26 at 07 UTC
Visibility: 4000 m
Broken clouds at a height of 1000 ft
Few clouds at a height of 2000 ft, Cumulonimbus.
thunderstorm, rain

TAF: GOOY 251130Z 2512/2618 24008KT 9999 SCT013 PROB30 TEMPO 2601/2607 4000 TSRA BKN010 FEW020CB

Weather observations and forecasts of more than 4000 airports (METAR and TAF reports).

The available stations are represented by yellow and red dots on the map.

Hover mouse over dot to see the name of the station.

Then click to see weather observations and forecasts.

To change the map : click on the green buttons with a black cross to zoom in, on the green button with a dash to zoom out, or on the green arrows for adjacent maps.


METAR-TAF: